地図

経路データ

SID SEASON NUMBER BASIN SUBBASIN NAME ISO_TIME NATURE LAT LON WMO_WIND WMO_PRES WMO_AGENCY TRACK_TYPE DIST2LAND LANDFALL IFLAG USA_AGENCY USA_ATCF_ID USA_LAT USA_LON USA_RECORD USA_STATUS USA_WIND USA_PRES USA_SSHS USA_R34_NE USA_R34_SE USA_R34_SW USA_R34_NW USA_R50_NE USA_R50_SE USA_R50_SW USA_R50_NW USA_R64_NE USA_R64_SE USA_R64_SW USA_R64_NW USA_POCI USA_ROCI USA_RMW USA_EYE TOKYO_LAT TOKYO_LON TOKYO_GRADE TOKYO_WIND TOKYO_PRES TOKYO_R50_DIR TOKYO_R50_LONG TOKYO_R50_SHORT TOKYO_R30_DIR TOKYO_R30_LONG TOKYO_R30_SHORT TOKYO_LAND CMA_LAT CMA_LON CMA_CAT CMA_WIND CMA_PRES HKO_LAT HKO_LON HKO_CAT HKO_WIND HKO_PRES NEWDELHI_LAT NEWDELHI_LON NEWDELHI_GRADE NEWDELHI_WIND NEWDELHI_PRES NEWDELHI_CI NEWDELHI_DP NEWDELHI_POCI REUNION_LAT REUNION_LON REUNION_TYPE REUNION_WIND REUNION_PRES REUNION_TNUM REUNION_CI REUNION_RMW REUNION_R34_NE REUNION_R34_SE REUNION_R34_SW REUNION_R34_NW REUNION_R50_NE REUNION_R50_SE REUNION_R50_SW REUNION_R50_NW REUNION_R64_NE REUNION_R64_SE REUNION_R64_SW REUNION_R64_NW BOM_LAT BOM_LON BOM_TYPE BOM_WIND BOM_PRES BOM_TNUM BOM_CI BOM_RMW BOM_R34_NE BOM_R34_SE BOM_R34_SW BOM_R34_NW BOM_R50_NE BOM_R50_SE BOM_R50_SW BOM_R50_NW BOM_R64_NE BOM_R64_SE BOM_R64_SW BOM_R64_NW BOM_ROCI BOM_POCI BOM_EYE BOM_POS_METHOD BOM_PRES_METHOD NADI_LAT NADI_LON NADI_CAT NADI_WIND NADI_PRES WELLINGTON_LAT WELLINGTON_LON WELLINGTON_WIND WELLINGTON_PRES DS824_LAT DS824_LON DS824_STAGE DS824_WIND DS824_PRES TD9636_LAT TD9636_LON TD9636_STAGE TD9636_WIND TD9636_PRES TD9635_LAT TD9635_LON TD9635_WIND TD9635_PRES TD9635_ROCI NEUMANN_LAT NEUMANN_LON NEUMANN_CLASS NEUMANN_WIND NEUMANN_PRES MLC_LAT MLC_LON MLC_CLASS MLC_WIND MLC_PRES USA_GUST BOM_GUST BOM_GUST_PER REUNION_GUST REUNION_GUST_PER USA_SEAHGT USA_SEARAD_NE USA_SEARAD_SE USA_SEARAD_SW USA_SEARAD_NW STORM_SPEED STORM_DIR
1909215N27133 1909 39 WP MM NOT_NAMED 1909-08-02 16:00:00 NR 27.3000 133.400 main 488 469 __________O___ -1 27.3000 133.400 2 6 285
1909215N27133 1909 39 WP MM NOT_NAMED 1909-08-02 18:00:00 NR 27.3506 133.191 main 469 454 __________P___ -1 27.3506 133.191 2 6 286
1909215N27133 1909 39 WP MM NOT_NAMED 1909-08-02 21:00:00 NR 27.4322 132.869 main 454 427 __________P___ -1 27.4322 132.869 2 6 287
1909215N27133 1909 39 WP MM NOT_NAMED 1909-08-03 00:00:00 NR 27.5295 132.522 main 427 392 __________P___ -1 27.5295 132.522 2 7 289
1909215N27133 1909 39 WP MM NOT_NAMED 1909-08-03 03:00:00 NR 27.6519 132.139 main 392 389 __________P___ -1 27.6519 132.139 2 7 290
1909215N27133 1909 39 WP MM NOT_NAMED 1909-08-03 04:00:00 NR 27.7000 132.000 main 389 370 __________O___ -1 27.7000 132.000 2 8 292
1909215N27133 1909 39 WP MM NOT_NAMED 1909-08-03 06:00:00 NR 27.8067 131.705 main 370 338 __________P___ -1 27.8067 131.705 2 9 292
1909215N27133 1909 39 WP MM NOT_NAMED 1909-08-03 09:00:00 NR 27.9736 131.230 main 338 323 __________P___ -1 27.9736 131.230 2 9 290
1909215N27133 1909 39 WP MM NOT_NAMED 1909-08-03 12:00:00 NR 28.1152 130.739 main 323 263 __________P___ -1 28.1152 130.739 2 9 284
1909215N27133 1909 39 WP MM NOT_NAMED 1909-08-03 15:00:00 NR 28.1941 130.255 main 314 336 __________P___ -1 28.1941 130.255 2 20 170
1909215N27133 1909 39 WP MM NOT_NAMED 1909-08-03 16:00:00 NR 26.8400 131.000 main 469 469 __________O___ -1 28.2000 130.100 2 43 161
1909215N27133 1909 39 WP MM NOT_NAMED 1909-08-03 18:00:00 NR 26.1561 131.055 main 537 547 __________P___ -1 28.1681 129.784 2 12 205
1909215N27133 1909 39 WP MM NOT_NAMED 1909-08-03 21:00:00 NR 25.9586 130.536 main 558 558 __________P___ -1 28.0511 129.328 2 11 260
1909215N27133 1909 39 WP MM NOT_NAMED 1909-08-04 00:00:00 NR 25.9686 129.889 main 563 550 __________P___ -1 27.8758 128.921 2 12 282
1909215N27133 1909 39 WP MM NOT_NAMED 1909-08-04 03:00:00 NR 26.2031 129.220 main 555 555 __________P___ -1 27.6703 128.589 2 12 290
1909215N27133 1909 39 WP MM NOT_NAMED 1909-08-04 04:00:00 NR 26.2500 129.050 main 547 550 __________O___ -1 27.6000 128.500 3 8 285
1909215N27133 1909 39 WP MM NOT_NAMED 1909-08-04 06:00:00 NR 26.3037 128.793 main 556 556 __________P___ -1 27.4776 128.347 3 5 274
1909215N27133 1909 39 WP MM NOT_NAMED 1909-08-04 09:00:00 NR 26.2801 128.587 main 563 563 __________P___ -1 27.2818 128.192 3 3 242
1909215N27133 1909 39 WP MM NOT_NAMED 1909-08-04 12:00:00 NR 26.1765 128.529 main 577 577 __________P___ -1 27.0769 128.113 3 2 189
1909215N27133 1909 39 WP MM NOT_NAMED 1909-08-04 15:00:00 NR 26.0427 128.543 main 598 594 __________P___ -1 26.8690 128.095 3 3 176
1909215N27133 1909 39 WP MM NOT_NAMED 1909-08-04 16:00:00 NR 26.0000 128.550 main 594 594 __________O___ -1 26.8000 128.100 4 2 199
1909215N27133 1909 39 WP MM NOT_NAMED 1909-08-04 18:00:00 NR 25.9436 128.496 main 608 608 __________P___ -1 26.6508 128.089 4 2 213
1909215N27133 1909 39 WP MM NOT_NAMED 1909-08-04 21:00:00 NR 25.8557 128.440 main 612 612 __________P___ -1 26.4266 128.117 4 2 201
1909215N27133 1909 39 WP MM NOT_NAMED 1909-08-05 00:00:00 NR 25.7749 128.418 main 622 622 __________P___ -1 26.2189 128.199 4 1 186
1909215N27133 1909 39 WP MM NOT_NAMED 1909-08-05 03:00:00 NR 25.7138 128.435 main 632 632 __________P___ -1 26.0464 128.340 4 1 148
1909215N27133 1909 39 WP MM NOT_NAMED 1909-08-05 04:00:00 NR 25.7000 128.450 main 629 629 __________O___ -1 26.0000 128.400 4 1 126
1909215N27133 1909 39 WP MM NOT_NAMED 1909-08-05 06:00:00 NR 25.6740 128.496 main 629 626 __________P___ -1 25.9090 128.543 4 2 108
1909215N27133 1909 39 WP MM NOT_NAMED 1909-08-05 09:00:00 NR 25.6567 128.601 main 626 623 __________P___ -1 25.8098 128.808 4 2 91
1909215N27133 1909 39 WP MM NOT_NAMED 1909-08-05 12:00:00 NR 25.6710 128.728 main 623 617 __________P___ -1 25.7634 129.106 4 2 74
1909215N27133 1909 39 WP MM NOT_NAMED 1909-08-05 15:00:00 NR 25.7231 128.859 main 617 617 __________P___ -1 25.7792 129.405 4 3 63
1909215N27133 1909 39 WP MM NOT_NAMED 1909-08-05 16:00:00 NR 25.7500 128.900 main 606 603 __________O___ -1 25.8000 129.500 4 3 44
1909215N27133 1909 39 WP MM NOT_NAMED 1909-08-05 18:00:00 NR 25.8212 128.966 main 603 579 __________P___ -1 25.8784 129.682 4 3 34
1909215N27133 1909 39 WP MM NOT_NAMED 1909-08-05 21:00:00 NR 25.9628 129.060 main 579 568 __________P___ -1 26.0531 129.943 4 3 28
1909215N27133 1909 39 WP MM NOT_NAMED 1909-08-06 00:00:00 NR 26.1281 129.146 main 568 544 __________P___ -1 26.2574 130.173 4 4 24
1909215N27133 1909 39 WP MM NOT_NAMED 1909-08-06 03:00:00 NR 26.2966 129.225 main 544 544 __________P___ -1 26.4474 130.354 4 4 23
1909215N27133 1909 39 WP MM NOT_NAMED 1909-08-06 04:00:00 NR 26.3500 129.250 main 531 531 __________O___ -1 26.5000 130.400 4 3 19
1909215N27133 1909 39 WP MM NOT_NAMED 1909-08-06 06:00:00 NR 26.4415 129.290 main 531 509 __________P___ -1 26.5617 130.463 4 3 20
1909215N27133 1909 39 WP MM NOT_NAMED 1909-08-06 09:00:00 NR 26.5727 129.343 main 509 496 __________P___ -1 26.6229 130.506 4 3 22
1909215N27133 1909 39 WP MM NOT_NAMED 1909-08-06 12:00:00 NR 26.6965 129.399 main 496 483 __________P___ -1 26.6603 130.510 4 3 25
1909215N27133 1909 39 WP MM NOT_NAMED 1909-08-06 15:00:00 NR 26.8129 129.470 main 483 483 __________P___ -1 26.6894 130.502 4 3 30
1909215N27133 1909 39 WP MM NOT_NAMED 1909-08-06 16:00:00 NR 26.8500 129.500 main 472 469 __________O___ -1 26.7000 130.500 4 3 42
1909215N27133 1909 39 WP MM NOT_NAMED 1909-08-06 18:00:00 NR 26.9224 129.575 main 469 456 __________P___ -1 26.7307 130.519 4 3 46
1909215N27133 1909 39 WP MM NOT_NAMED 1909-08-06 21:00:00 NR 27.0247 129.705 main 456 442 __________P___ -1 26.7767 130.548 4 3 51
1909215N27133 1909 39 WP MM NOT_NAMED 1909-08-07 00:00:00 NR 27.1221 129.850 main 442 429 __________P___ -1 26.8254 130.575 4 3 54
1909215N27133 1909 39 WP MM NOT_NAMED 1909-08-07 03:00:00 NR 27.2179 130.000 main 429 429 __________P___ -1 26.8800 130.595 4 3 54
1909215N27133 1909 39 WP MM NOT_NAMED 1909-08-07 04:00:00 NR 27.2500 130.050 main 417 417 __________O___ -1 26.9000 130.600 4 3 50
1909215N27133 1909 39 WP MM NOT_NAMED 1909-08-07 06:00:00 NR 27.3191 130.134 main 417 403 __________P___ -1 26.9469 130.603 4 3 47
1909215N27133 1909 39 WP MM NOT_NAMED 1909-08-07 09:00:00 NR 27.4230 130.260 main 403 391 __________P___ -1 27.0236 130.601 4 3 48
1909215N27133 1909 39 WP MM NOT_NAMED 1909-08-07 12:00:00 NR 27.5243 130.393 main 391 379 __________P___ -1 27.1025 130.598 4 3 52
1909215N27133 1909 39 WP MM NOT_NAMED 1909-08-07 15:00:00 NR 27.6199 130.544 main 379 379 __________P___ -1 27.1771 130.598 4 3 55
1909215N27133 1909 39 WP MM NOT_NAMED 1909-08-07 16:00:00 NR 27.6500 130.600 main 368 368 __________O___ -1 27.2000 130.600 4 4 62
1909215N27133 1909 39 WP MM NOT_NAMED 1909-08-07 18:00:00 NR 27.7057 130.724 main 368 357 __________P___ -1 27.2390 130.614 4 4 65
1909215N27133 1909 39 WP MM NOT_NAMED 1909-08-07 21:00:00 NR 27.7835 130.929 main 357 357 __________P___ -1 27.2913 130.640 4 3 76
1909215N27133 1909 39 WP MM NOT_NAMED 1909-08-08 00:00:00 NR 27.7824 131.080 main 359 359 __________P___ -1 27.3388 130.669 4 2 101
1909215N27133 1909 39 WP MM NOT_NAMED 1909-08-08 03:00:00 NR 27.7460 131.148 main 370 370 __________P___ -1 27.3846 130.694 4 3 203
1909215N27133 1909 39 WP MM NOT_NAMED 1909-08-08 04:00:00 NR 27.6200 131.000 main 380 379 __________O___ -1 27.4000 130.700 4 10 231
1909215N27133 1909 39 WP MM NOT_NAMED 1909-08-08 06:00:00 NR 27.4333 130.708 main 401 390 __________P___ -1 27.4333 130.708 4 3 242
1909215N27133 1909 39 WP MM NOT_NAMED 1909-08-08 09:00:00 NR 27.4833 130.715 main 390 390 __________P___ -1 27.4833 130.715 4 1 0
1909215N27133 1909 39 WP MM NOT_NAMED 1909-08-08 12:00:00 NR 27.5333 130.713 main 390 379 __________P___ -1 27.5333 130.713 4 1 0
1909215N27133 1909 39 WP MM NOT_NAMED 1909-08-08 15:00:00 NR 27.5833 130.705 main 379 379 __________P___ -1 27.5833 130.705 4 1 347
1909215N27133 1909 39 WP MM NOT_NAMED 1909-08-08 16:00:00 NR 27.6000 130.700 main 379 379 __________O___ -1 27.6000 130.700 4 1 0
1909215N27133 1909 39 WP MM NOT_NAMED 1909-08-08 18:00:00 NR 27.6307 130.692 main 379 368 __________P___ -1 27.6307 130.692 4 1 346
1909215N27133 1909 39 WP MM NOT_NAMED 1909-08-08 21:00:00 NR 27.6767 130.673 main 368 368 __________P___ -1 27.6767 130.673 4 1 335
1909215N27133 1909 39 WP MM NOT_NAMED 1909-08-09 00:00:00 NR 27.7254 130.647 main 368 357 __________P___ -1 27.7254 130.647 4 1 330
1909215N27133 1909 39 WP MM NOT_NAMED 1909-08-09 03:00:00 NR 27.7800 130.613 main 357 357 __________P___ -1 27.7800 130.613 4 1 327
1909215N27133 1909 39 WP MM NOT_NAMED 1909-08-09 04:00:00 NR 27.8000 130.600 main 357 357 __________O___ -1 27.8000 130.600 4 2 324
1909215N27133 1909 39 WP MM NOT_NAMED 1909-08-09 06:00:00 NR 27.8443 130.570 main 357 346 __________P___ -1 27.8443 130.570 4 2 329
1909215N27133 1909 39 WP MM NOT_NAMED 1909-08-09 09:00:00 NR 27.9171 130.518 main 346 335 __________P___ -1 27.9171 130.518 4 2 328
1909215N27133 1909 39 WP MM NOT_NAMED 1909-08-09 12:00:00 NR 27.9946 130.464 main 335 324 __________P___ -1 27.9946 130.464 4 2 330
1909215N27133 1909 39 WP MM NOT_NAMED 1909-08-09 15:00:00 NR 28.0738 130.415 main 324 324 __________P___ -1 28.0738 130.415 4 2 333
1909215N27133 1909 39 WP MM NOT_NAMED 1909-08-09 16:00:00 NR 28.1000 130.400 main 324 324 __________O___ -1 28.1000 130.400 4 2 338
1909215N27133 1909 39 WP MM NOT_NAMED 1909-08-09 18:00:00 NR 28.1474 130.370 main 324 313 __________P___ -1 28.1474 130.370 4 2 334
1909215N27133 1909 39 WP MM NOT_NAMED 1909-08-09 21:00:00 NR 28.2184 130.331 main 314 303 __________P___ -1 28.2184 130.331 4 2 341
1909215N27133 1909 39 WP MM NOT_NAMED 1909-08-10 00:00:00 NR 28.2921 130.304 main 303 292 __________P___ -1 28.2921 130.304 4 2 346
1909215N27133 1909 39 WP MM NOT_NAMED 1909-08-10 03:00:00 NR 28.3716 130.297 main 292 292 __________P___ -1 28.3716 130.297 4 2 0
1909215N27133 1909 39 WP MM NOT_NAMED 1909-08-10 04:00:00 NR 28.4000 130.300 main 292 281 __________O___ -1 28.4000 130.300 4 2 0
1909215N27133 1909 39 WP MM NOT_NAMED 1909-08-10 06:00:00 NR 28.4609 130.311 main 281 270 __________P___ -1 28.4609 130.311 4 2 13
1909215N27133 1909 39 WP MM NOT_NAMED 1909-08-10 09:00:00 NR 28.5587 130.346 main 270 258 __________P___ -1 28.5587 130.346 4 2 22
1909215N27133 1909 39 WP MM NOT_NAMED 1909-08-10 12:00:00 NR 28.6612 130.401 main 258 246 __________P___ -1 28.6612 130.401 4 2 28
1909215N27133 1909 39 WP MM NOT_NAMED 1909-08-10 15:00:00 NR 28.7654 130.473 main 246 246 __________P___ -1 28.7654 130.473 4 2 32
1909215N27133 1909 39 WP MM NOT_NAMED 1909-08-10 16:00:00 NR 28.8000 130.500 main 246 234 __________O___ -1 28.8000 130.500 4 3 32
1909215N27133 1909 39 WP MM NOT_NAMED 1909-08-10 18:00:00 NR 28.8719 130.555 main 234 223 __________P___ -1 28.8719 130.555 4 3 36
1909215N27133 1909 39 WP MM NOT_NAMED 1909-08-10 21:00:00 NR 28.9799 130.651 main 223 212 __________P___ -1 28.9799 130.651 4 3 40
1909215N27133 1909 39 WP MM NOT_NAMED 1909-08-11 00:00:00 NR 29.0825 130.756 main 212 201 __________P___ -1 29.0825 130.756 4 3 44
1909215N27133 1909 39 WP MM NOT_NAMED 1909-08-11 03:00:00 NR 29.1734 130.864 main 201 201 __________P___ -1 29.1734 130.864 4 3 47
1909215N27133 1909 39 WP MM NOT_NAMED 1909-08-11 04:00:00 NR 29.2000 130.900 main 201 201 __________O___ -1 29.2000 130.900 4 2 50
1909215N27133 1909 39 WP MM NOT_NAMED 1909-08-11 06:00:00 NR 29.2447 130.964 main 202 191 __________P___ -1 29.2447 130.964 4 2 54
1909215N27133 1909 39 WP MM NOT_NAMED 1909-08-11 09:00:00 NR 29.2992 131.060 main 193 193 __________P___ -1 29.2992 131.060 4 2 59
1909215N27133 1909 39 WP MM NOT_NAMED 1909-08-11 12:00:00 NR 29.3441 131.159 main 195 184 __________P___ -1 29.3441 131.159 4 2 64
1909215N27133 1909 39 WP MM NOT_NAMED 1909-08-11 15:00:00 NR 29.3858 131.263 main 187 187 __________P___ -1 29.3858 131.263 4 2 66
1909215N27133 1909 39 WP MM NOT_NAMED 1909-08-11 16:00:00 NR 29.4000 131.300 main 187 187 __________O___ -1 29.4000 131.300 4 2 56
1909215N27133 1909 39 WP MM NOT_NAMED 1909-08-11 18:00:00 NR 29.4302 131.336 main 187 180 __________P___ -1 29.4302 131.336 4 1 48
1909215N27133 1909 39 WP MM NOT_NAMED 1909-08-11 21:00:00 NR 29.4754 131.395 main 180 180 __________P___ -1 29.4754 131.395 4 2 57
1909215N27133 1909 39 WP MM NOT_NAMED 1909-08-12 00:00:00 NR 29.5240 131.502 main 184 178 __________P___ -1 29.5240 131.502 4 3 69
1909215N27133 1909 39 WP MM NOT_NAMED 1909-08-12 03:00:00 NR 29.5794 131.704 main 183 183 __________P___ -1 29.5794 131.704 4 4 74
1909215N27133 1909 39 WP MM NOT_NAMED 1909-08-12 04:00:00 NR 29.6000 131.800 main 188 188 __________O___ -1 29.6000 131.800 4 6 77
1909215N27133 1909 39 WP MM NOT_NAMED 1909-08-12 06:00:00 NR 29.6503 132.061 main 197 197 __________P___ -1 29.6503 132.061 4 8 79
1909215N27133 1909 39 WP MM NOT_NAMED 1909-08-12 09:00:00 NR 29.7317 132.553 main 221 217 __________P___ -1 29.7317 132.553 4 9 80
1909215N27133 1909 39 WP MM NOT_NAMED 1909-08-12 12:00:00 NR 29.8115 133.120 main 241 247 __________P___ -1 29.8115 133.120 4 10 82
1909215N27133 1909 39 WP MM NOT_NAMED 1909-08-12 15:00:00 NR 29.8808 133.708 main 276 276 __________P___ -1 29.8808 133.708 4 10 83
1909215N27133 1909 39 WP MM NOT_NAMED 1909-08-12 16:00:00 NR 29.9000 133.900 main 291 291 __________O___ -1 29.9000 133.900 4 9 83
1909215N27133 1909 39 WP MM NOT_NAMED 1909-08-12 18:00:00 NR 29.9356 134.244 main 315 323 __________P___ -1 29.9356 134.244 4 9 84
1909215N27133 1909 39 WP MM NOT_NAMED 1909-08-12 21:00:00 NR 29.9768 134.754 main 346 346 __________P___ -1 29.9768 134.754 4 9 86
1909215N27133 1909 39 WP MM NOT_NAMED 1909-08-13 00:00:00 NR 30.0007 135.254 main 371 371 __________P___ -1 30.0007 135.254 4 9 88
1909215N27133 1909 39 WP MM NOT_NAMED 1909-08-13 03:00:00 NR 30.0040 135.741 main 379 379 __________P___ -1 30.0040 135.741 4 8 90
1909215N27133 1909 39 WP MM NOT_NAMED 1909-08-13 04:00:00 NR 30.0000 135.900 main 379 379 __________O___ -1 30.0000 135.900 7 8 92
1909215N27133 1909 39 WP MM NOT_NAMED 1909-08-13 06:00:00 NR 29.9886 136.214 main 381 381 __________P___ -1 29.9886 136.214 7 8 94
1909215N27133 1909 39 WP MM NOT_NAMED 1909-08-13 09:00:00 NR 29.9530 136.673 main 388 388 __________P___ -1 29.9530 136.673 7 8 97
1909215N27133 1909 39 WP MM NOT_NAMED 1909-08-13 12:00:00 NR 29.8981 137.119 main 409 409 __________P___ -1 29.8981 137.119 7 8 99
1909215N27133 1909 39 WP MM NOT_NAMED 1909-08-13 15:00:00 NR 29.8269 137.556 main 436 436 __________P___ -1 29.8269 137.556 7 8 101
1909215N27133 1909 39 WP MM NOT_NAMED 1909-08-13 16:00:00 NR 29.8000 137.700 main 439 439 __________O___ -1 29.8000 137.700 7 7 99
1909215N27133 1909 39 WP MM NOT_NAMED 1909-08-13 18:00:00 NR 29.7675 137.970 main 452 452 __________P___ -1 29.7675 137.970 7 7 99
1909215N27133 1909 39 WP MM NOT_NAMED 1909-08-13 21:00:00 NR 29.7070 138.368 main 480 480 __________P___ -1 29.7070 138.368 7 7 102
1909215N27133 1909 39 WP MM NOT_NAMED 1909-08-14 00:00:00 NR 29.6136 138.781 main 510 510 __________P___ -1 29.6136 138.781 7 8 108
1909215N27133 1909 39 WP MM NOT_NAMED 1909-08-14 03:00:00 NR 29.4654 139.235 main 541 546 __________P___ -1 29.4654 139.235 7 9 112
1909215N27133 1909 39 WP MM NOT_NAMED 1909-08-14 04:00:00 NR 29.4000 139.400 main 561 561 __________O___ -1 29.4000 139.400 7 10 115
1909215N27133 1909 39 WP MM NOT_NAMED 1909-08-14 06:00:00 NR 29.2456 139.771 main 602 602 __________P___ -1 29.2456 139.771 7 11 118
1909215N27133 1909 39 WP MM NOT_NAMED 1909-08-14 09:00:00 NR 28.9574 140.372 main 642 653 __________P___ -1 28.9574 140.372 7 12 121
1909215N27133 1909 39 WP MM NOT_NAMED 1909-08-14 12:00:00 NR 28.6145 140.994 main 700 700 __________P___ -1 28.6145 140.994 7 13 124
1909215N27133 1909 39 WP MM NOT_NAMED 1909-08-14 15:00:00 NR 28.2330 141.605 main 761 761 __________P___ -1 28.2330 141.605 7 13 126
1909215N27133 1909 39 WP MM NOT_NAMED 1909-08-14 16:00:00 NR 28.1000 141.800 main 778 778 __________O___ -1 28.1000 141.800 7 13 129
1909215N27133 1909 39 WP MM NOT_NAMED 1909-08-14 18:00:00 NR 27.8284 142.173 main 821 821 __________P___ -1 27.8284 142.173 7 13 131
1909215N27133 1909 39 WP MM NOT_NAMED 1909-08-14 21:00:00 NR 27.4098 142.693 main 877 877 __________P___ -1 27.4098 142.693 7 12 133
1909215N27133 1909 39 WP MM NOT_NAMED 1909-08-15 00:00:00 NR 26.9809 143.180 main 935 935 __________P___ -1 26.9809 143.180 7 12 135
1909215N27133 1909 39 WP MM NOT_NAMED 1909-08-15 03:00:00 NR 26.5458 143.647 main 1001 1004 __________P___ -1 26.5458 143.647 7 12 136
1909215N27133 1909 39 WP MM NOT_NAMED 1909-08-15 04:00:00 NR 26.4000 143.800 main 1018 __________O___ -1 26.4000 143.800 7 12 136

デジタル台風データ・検索

IBTrACS Databaseについて

本データベースは、米国NOAAが公開する1842年以降の世界の熱帯低気圧のベストトラックデータアーカイブInternational Best Track Archive for Climate Stewardship (IBTrACS)を、ウェブで閲覧しやすい形式に変換したものです。

最終更新日:2021-12-08